Time;durP1;ratioP1;P1;durP2;ratioP2;P2;SDS_P1;SDS_P2;PMS_P1;PMS_P2;Temp;Humidity;BMP_temperature;BMP_pressure;BME280_temperature;BME280_humidity;BME280_pressure;Samples;Min_cycle;Max_cycle;Signal;HPM_P1;HPM_P2
2021/10/29 00:01:16;;;;;;;4.38;2.70;;;16.30;82.70;;;;;;4985573;28;20038;-81
2021/10/29 00:03:42;;;;;;;6.68;3.38;;;16.30;82.70;;;;;;4986456;28;20125;-79
2021/10/29 00:06:08;;;;;;;4.50;2.97;;;16.30;82.70;;;;;;4985568;28;20490;-80
2021/10/29 00:08:35;;;;;;;4.00;2.05;;;16.30;82.70;;;;;;4986931;28;20033;-84
2021/10/29 00:11:01;;;;;;;4.13;2.42;;;16.30;82.80;;;;;;5001732;28;20034;-81
2021/10/29 00:13:27;;;;;;;5.15;2.42;;;16.30;82.80;;;;;;4986825;28;20386;-83
2021/10/29 00:15:53;;;;;;;5.20;2.72;;;16.20;82.60;;;;;;4986726;28;20031;-81
2021/10/29 00:18:19;;;;;;;7.32;2.85;;;16.20;82.60;;;;;;4986627;28;20349;-81
2021/10/29 00:20:45;;;;;;;3.60;2.28;;;16.20;82.70;;;;;;4987010;28;20034;-76
2021/10/29 00:23:11;;;;;;;6.82;3.08;;;16.30;82.90;;;;;;4986841;28;20034;-76
2021/10/29 00:25:37;;;;;;;5.10;2.05;;;16.20;82.70;;;;;;5004983;28;20503;-82
2021/10/29 00:28:03;;;;;;;6.55;3.15;;;16.20;82.70;;;;;;5005812;28;20033;-80
2021/10/29 00:30:29;;;;;;;3.78;2.17;;;16.20;82.80;;;;;;4992252;28;20038;-74
2021/10/29 00:32:55;;;;;;;2.35;1.75;;;16.20;82.80;;;;;;4985105;28;20026;-76
2021/10/29 00:35:21;;;;;;;2.92;1.75;;;16.20;82.80;;;;;;4986440;28;20062;-75
2021/10/29 00:37:48;;;;;;;4.13;2.13;;;16.20;82.80;;;;;;4986659;28;20042;-79
2021/10/29 00:40:14;;;;;;;2.45;2.25;;;16.20;82.80;;;;;;4985006;28;20029;-77
2021/10/29 00:42:41;;;;;;;4.53;2.10;;;16.20;82.80;;;;;;4986853;28;20034;-80
2021/10/29 00:45:08;;;;;;;2.63;1.73;;;16.20;82.80;;;;;;4986161;28;20026;-81
2021/10/29 00:47:34;;;;;;;4.70;1.90;;;16.20;82.80;;;;;;4986891;28;20039;-79
2021/10/29 00:50:00;;;;;;;2.92;1.80;;;16.10;82.70;;;;;;4986023;28;20046;-79
2021/10/29 00:52:26;;;;;;;3.58;2.10;;;16.10;82.70;;;;;;4985639;28;20057;-75
2021/10/29 00:54:53;;;;;;;3.35;1.95;;;16.10;82.70;;;;;;4986450;28;20027;-76
2021/10/29 00:57:19;;;;;;;3.17;2.35;;;16.10;82.70;;;;;;4985607;28;20030;-76
2021/10/29 00:59:45;;;;;;;3.28;1.80;;;16.10;82.70;;;;;;4986343;28;20110;-80
2021/10/29 01:02:11;;;;;;;4.18;2.30;;;16.00;82.50;;;;;;4986578;28;20074;-77
2021/10/29 01:04:38;;;;;;;2.88;1.92;;;16.00;82.50;;;;;;4986270;28;20065;-80
2021/10/29 01:07:04;;;;;;;3.67;1.48;;;16.00;82.60;;;;;;4986204;28;20392;-80
2021/10/29 01:09:30;;;;;;;5.38;1.80;;;16.00;82.60;;;;;;4985771;28;20073;-79
2021/10/29 01:11:56;;;;;;;3.42;1.70;;;16.00;82.60;;;;;;4986120;28;20398;-79
2021/10/29 01:14:22;;;;;;;2.63;1.98;;;16.00;82.60;;;;;;4985262;28;20128;-81
2021/10/29 01:16:48;;;;;;;4.07;2.13;;;16.00;82.70;;;;;;4986700;28;20624;-81
2021/10/29 01:19:14;;;;;;;5.20;2.72;;;16.00;82.70;;;;;;4984991;28;20084;-80
2021/10/29 01:21:40;;;;;;;3.40;2.20;;;15.90;83.10;;;;;;4988871;28;20041;-75
2021/10/29 01:24:07;;;;;;;3.90;1.90;;;16.00;82.80;;;;;;4978006;28;20276;-80
2021/10/29 01:26:34;;;;;;;4.18;2.60;;;15.90;82.60;;;;;;5009560;28;20173;-79
2021/10/29 01:29:00;;;;;;;3.40;2.03;;;15.90;82.60;;;;;;4999758;28;20045;-79
2021/10/29 01:31:26;;;;;;;3.75;2.63;;;15.90;82.60;;;;;;4983939;28;20053;-79
2021/10/29 01:33:52;;;;;;;4.40;2.58;;;15.90;82.60;;;;;;4984984;28;20026;-79
2021/10/29 01:36:19;;;;;;;2.78;2.03;;;15.90;82.60;;;;;;5005939;28;20029;-81
2021/10/29 01:38:48;;;;;;;5.55;2.13;;;15.90;82.60;;;;;;4981092;28;20044;-81
2021/10/29 01:41:14;;;;;;;3.35;2.53;;;15.90;82.60;;;;;;4991190;28;20389;-80
2021/10/29 01:43:46;;;;;;;2.58;2.28;;;15.90;82.60;;;;;;4990487;28;20134;-81
2021/10/29 01:46:12;;;;;;;3.00;2.03;;;15.90;82.70;;;;;;4990934;28;20625;-81
2021/10/29 01:48:48;;;;;;;3.58;2.25;;;15.90;82.70;;;;;;4993432;28;20043;-82
2021/10/29 01:51:15;;;;;;;4.18;2.30;;;15.90;82.80;;;;;;4994038;28;20393;-81
2021/10/29 01:53:42;;;;;;;5.75;2.40;;;15.90;82.70;;;;;;4994268;28;20034;-81
2021/10/29 01:56:08;;;;;;;4.63;2.35;;;15.90;82.70;;;;;;4992548;28;20042;-81
2021/10/29 01:58:34;;;;;;;6.60;2.40;;;15.90;82.70;;;;;;4993561;28;20030;-81
2021/10/29 02:01:02;;;;;;;5.10;2.75;;;15.80;82.50;;;;;;5008918;28;20030;-80
2021/10/29 02:03:28;;;;;;;4.85;2.33;;;15.80;82.50;;;;;;4992951;28;20026;-81
2021/10/29 02:05:54;;;;;;;4.95;3.55;;;15.80;82.50;;;;;;4993465;28;20503;-81
2021/10/29 02:08:24;;;;;;;6.40;2.50;;;15.80;82.50;;;;;;4993755;28;20062;-81
2021/10/29 02:10:50;;;;;;;5.38;2.50;;;15.80;82.50;;;;;;4993915;28;20061;-80
2021/10/29 02:13:20;;;;;;;8.68;3.10;;;15.80;82.60;;;;;;4994189;28;20047;-80
2021/10/29 02:15:47;;;;;;;4.28;2.90;;;15.80;82.60;;;;;;4992434;28;20038;-82
2021/10/29 02:18:13;;;;;;;3.83;2.50;;;15.80;82.60;;;;;;4993131;28;20095;-82
2021/10/29 02:20:39;;;;;;;4.40;2.90;;;15.80;82.60;;;;;;4993703;28;20034;-79
2021/10/29 02:23:05;;;;;;;5.35;2.88;;;15.70;82.50;;;;;;4993575;28;20062;-80
2021/10/29 02:25:32;;;;;;;5.00;2.55;;;15.70;82.50;;;;;;4993177;28;20082;-79
2021/10/29 02:27:58;;;;;;;3.72;2.67;;;15.70;82.50;;;;;;4993539;28;20037;-83
2021/10/29 02:30:24;;;;;;;4.10;2.55;;;15.70;82.50;;;;;;5007801;28;20041;-80
2021/10/29 02:32:49;;;;;;;5.03;3.40;;;15.70;82.50;;;;;;4992378;28;20042;-79
2021/10/29 02:35:16;;;;;;;6.25;2.72;;;15.70;82.60;;;;;;4993493;28;20027;-78
2021/10/29 02:37:41;;;;;;;3.80;2.70;;;15.70;82.60;;;;;;4993057;28;20101;-80
2021/10/29 02:40:08;;;;;;;4.47;3.55;;;15.70;82.60;;;;;;4993205;28;20022;-80
2021/10/29 02:42:34;;;;;;;6.90;3.97;;;15.70;82.60;;;;;;4993039;28;20421;-80
2021/10/29 02:45:00;;;;;;;8.98;4.57;;;15.60;82.50;;;;;;4993443;28;20030;-80
2021/10/29 02:47:26;;;;;;;4.68;2.80;;;15.70;82.70;;;;;;4992463;28;20042;-80
2021/10/29 02:49:52;;;;;;;5.18;3.20;;;15.60;82.50;;;;;;5007817;28;20401;-79
2021/10/29 02:52:18;;;;;;;3.55;2.47;;;15.60;82.50;;;;;;4993092;28;20108;-79
2021/10/29 02:54:44;;;;;;;4.68;3.25;;;15.70;82.70;;;;;;4992947;28;20026;-77
2021/10/29 02:57:10;;;;;;;4.97;2.80;;;15.60;82.50;;;;;;4992532;28;20031;-79
2021/10/29 02:59:36;;;;;;;5.45;3.00;;;15.60;82.50;;;;;;4992825;28;20728;-79
2021/10/29 03:02:02;;;;;;;5.00;3.58;;;15.60;82.50;;;;;;4992287;28;20073;-77
2021/10/29 03:04:29;;;;;;;3.53;2.92;;;15.60;82.50;;;;;;4992627;28;20035;-80
2021/10/29 03:06:55;;;;;;;4.85;3.25;;;15.60;82.60;;;;;;4992190;28;20038;-80
2021/10/29 03:09:22;;;;;;;6.18;3.22;;;15.60;82.60;;;;;;4991169;28;20041;-78
2021/10/29 03:11:48;;;;;;;3.42;2.80;;;15.60;82.60;;;;;;4992409;28;20030;-79
2021/10/29 03:14:14;;;;;;;4.45;3.25;;;15.50;82.40;;;;;;4992625;28;20092;-80
2021/10/29 03:16:40;;;;;;;5.80;3.72;;;15.50;82.50;;;;;;4991952;28;20549;-80
2021/10/29 03:19:06;;;;;;;4.35;3.20;;;15.50;82.50;;;;;;4992241;28;20050;-77
2021/10/29 03:21:33;;;;;;;7.43;3.20;;;15.50;82.50;;;;;;4992605;28;20026;-81
2021/10/29 03:23:59;;;;;;;5.53;2.60;;;15.50;82.50;;;;;;4992135;28;20033;-81
2021/10/29 03:26:25;;;;;;;8.77;3.10;;;15.50;82.50;;;;;;4991017;28;20035;-79
2021/10/29 03:28:51;;;;;;;4.70;3.25;;;15.50;82.60;;;;;;4991852;28;20042;-80
2021/10/29 03:31:17;;;;;;;5.18;2.92;;;15.50;82.60;;;;;;4992078;28;20340;-78
2021/10/29 03:33:43;;;;;;;4.15;2.65;;;15.50;82.60;;;;;;4991960;28;20123;-80
2021/10/29 03:36:09;;;;;;;5.57;2.90;;;15.40;82.50;;;;;;5007512;28;20363;-78
2021/10/29 03:39:10;;;;;;;4.72;2.83;;;15.50;82.70;;;;;;5007278;28;20065;-80
2021/10/29 03:41:30;;;;;;;4.22;2.53;;;15.40;82.50;;;;;;4991286;28;20034;-79
2021/10/29 03:44:01;;;;;;;5.38;3.00;;;15.50;82.60;;;;;;4991667;28;20398;-80
2021/10/29 03:46:29;;;;;;;7.45;2.90;;;15.40;82.50;;;;;;4991741;28;20042;-80
2021/10/29 03:49:03;;;;;;;4.63;2.78;;;15.40;82.50;;;;;;4991449;28;20042;-79
2021/10/29 03:51:50;;;;;;;4.43;3.50;;;15.40;82.50;;;;;;4992346;28;20041;-78
2021/10/29 03:54:30;;;;;;;6.18;3.67;;;15.40;82.50;;;;;;4991781;28;20026;-79
2021/10/29 03:57:08;;;;;;;8.70;4.30;;;15.40;82.50;;;;;;5007066;28;20498;-80
2021/10/29 03:59:35;;;;;;;6.43;4.07;;;15.40;82.50;;;;;;4990430;28;20030;-78
2021/10/29 04:02:01;;;;;;;7.53;3.35;;;15.40;82.50;;;;;;4991212;28;20508;-80
2021/10/29 04:04:27;;;;;;;6.60;3.85;;;15.40;82.50;;;;;;5006935;28;20029;-79
2021/10/29 04:06:54;;;;;;;5.20;3.17;;;15.40;82.50;;;;;;4991755;28;20054;-79
2021/10/29 04:09:20;;;;;;;6.47;3.08;;;15.40;82.50;;;;;;4991507;28;20030;-79
2021/10/29 04:11:46;;;;;;;7.78;3.58;;;15.40;82.50;;;;;;4991877;28;20038;-79
2021/10/29 04:14:13;;;;;;;4.40;2.83;;;15.40;82.60;;;;;;4991578;28;20505;-79
2021/10/29 04:16:40;;;;;;;5.38;3.60;;;15.40;82.50;;;;;;5005968;28;20038;-79
2021/10/29 04:19:13;;;;;;;5.50;3.15;;;15.40;82.50;;;;;;4991113;28;20058;-80
2021/10/29 04:21:40;;;;;;;8.68;3.78;;;15.30;82.40;;;;;;4991601;28;20061;-79
2021/10/29 04:24:07;;;;;;;3.83;2.65;;;15.40;82.60;;;;;;4974574;28;20236;-80
2021/10/29 04:26:35;;;;;;;4.63;2.78;;;15.30;82.40;;;;;;4991293;28;20039;-80
2021/10/29 04:29:12;;;;;;;5.10;3.30;;;15.40;82.70;;;;;;4991017;28;20061;-82
2021/10/29 04:31:46;;;;;;;5.50;3.47;;;15.30;82.50;;;;;;4991336;28;20026;-84
2021/10/29 04:34:13;;;;;;;8.38;3.55;;;15.40;82.70;;;;;;5006147;28;20041;-83
2021/10/29 04:36:39;;;;;;;6.43;3.42;;;15.30;82.50;;;;;;4991281;28;20120;-83
2021/10/29 04:39:11;;;;;;;8.23;3.38;;;15.30;82.50;;;;;;4991329;28;20401;-83
2021/10/29 04:41:38;;;;;;;7.50;3.40;;;15.30;82.50;;;;;;4990465;28;20092;-86
2021/10/29 04:44:05;;;;;;;7.10;3.03;;;15.30;82.50;;;;;;4991640;28;20066;-83
2021/10/29 04:46:31;;;;;;;7.18;3.72;;;15.30;82.50;;;;;;4991430;28;20034;-80
2021/10/29 04:48:58;;;;;;;7.40;3.35;;;15.40;82.70;;;;;;4987431;28;20038;-82
2021/10/29 04:51:24;;;;;;;6.95;3.20;;;15.40;82.70;;;;;;4988150;28;20117;-80
2021/10/29 04:53:50;;;;;;;6.82;3.33;;;15.40;82.70;;;;;;4988247;28;20117;-82
2021/10/29 04:56:16;;;;;;;5.43;3.20;;;15.40;82.80;;;;;;4991600;28;20363;-82
2021/10/29 04:58:42;;;;;;;7.70;3.47;;;15.30;82.60;;;;;;4989861;28;20121;-81
2021/10/29 05:01:08;;;;;;;7.07;3.80;;;15.40;82.80;;;;;;4991848;28;20548;-82
2021/10/29 05:03:34;;;;;;;6.70;3.35;;;15.40;82.80;;;;;;4988753;28;20030;-82
2021/10/29 05:06:00;;;;;;;5.28;3.25;;;15.40;82.80;;;;;;4990247;28;20038;-80
2021/10/29 05:08:26;;;;;;;5.75;3.15;;;15.40;82.80;;;;;;4990054;28;20042;-82
2021/10/29 05:10:52;;;;;;;7.88;3.50;;;15.40;82.80;;;;;;4989871;28;20560;-80
2021/10/29 05:13:18;;;;;;;5.57;3.30;;;15.40;82.80;;;;;;5001739;28;20034;-84
2021/10/29 05:15:44;;;;;;;11.35;4.18;;;15.40;82.80;;;;;;5010149;28;20104;-81
2021/10/29 05:18:17;;;;;;;7.25;3.55;;;15.40;82.80;;;;;;4990877;28;20115;-81
2021/10/29 05:20:43;;;;;;;8.85;3.92;;;15.40;82.80;;;;;;5000990;28;20088;-81
2021/10/29 05:23:10;;;;;;;7.05;3.03;;;15.40;82.80;;;;;;4998777;28;20027;-77
2021/10/29 05:25:37;;;;;;;6.93;3.53;;;15.40;82.80;;;;;;4989773;28;20030;-81
2021/10/29 05:28:03;;;;;;;9.77;4.13;;;15.40;82.80;;;;;;4995296;28;20099;-83
2021/10/29 05:30:30;;;;;;;9.55;4.45;;;15.40;82.80;;;;;;5009319;28;20446;-79
2021/10/29 05:32:56;;;;;;;5.60;4.60;;;15.40;82.70;;;;;;5000106;28;20501;-80
2021/10/29 05:35:22;;;;;;;9.35;3.78;;;15.50;82.90;;;;;;4988653;28;20034;-79
2021/10/29 05:37:48;;;;;;;6.80;3.40;;;15.40;82.70;;;;;;5004566;28;20393;-81
2021/10/29 05:40:14;;;;;;;7.18;3.17;;;15.40;82.70;;;;;;4990024;28;20076;-81
2021/10/29 05:42:40;;;;;;;8.23;3.83;;;15.40;82.70;;;;;;4987898;28;20038;-84
2021/10/29 05:45:09;;;;;;;6.40;3.00;;;15.40;82.60;;;;;;4990226;28;20034;-85
2021/10/29 05:47:37;;;;;;;10.90;4.45;;;15.40;82.60;;;;;;4985608;28;20141;-81
2021/10/29 05:50:05;;;;;;;6.47;2.92;;;15.40;82.70;;;;;;5008802;28;20045;-78
2021/10/29 05:52:34;;;;;;;7.03;2.95;;;15.40;82.70;;;;;;4988182;28;20668;-83
2021/10/29 05:57:29;;;;;;;8.93;4.05;;;15.40;82.80;;;;;;4989008;28;20152;-80
2021/10/29 05:59:55;;;;;;;6.47;2.92;;;15.40;82.80;;;;;;4968893;28;20431;-82
2021/10/29 06:02:21;;;;;;;7.90;3.40;;;15.40;83.00;;;;;;4991825;28;20180;-86
2021/10/29 06:04:48;;;;;;;7.95;3.63;;;15.40;83.30;;;;;;4997112;28;20034;-85
2021/10/29 06:07:14;;;;;;;8.98;3.05;;;15.40;83.50;;;;;;4979638;28;20130;-86
2021/10/29 06:09:40;;;;;;;9.43;3.33;;;15.40;83.50;;;;;;4989202;28;20030;-88
2021/10/29 06:12:06;;;;;;;6.55;2.60;;;15.40;83.60;;;;;;4989838;28;20402;-87
2021/10/29 06:14:34;;;;;;;8.90;4.22;;;15.40;83.60;;;;;;5004889;28;20494;-88
2021/10/29 06:17:01;;;;;;;6.68;3.10;;;15.40;83.60;;;;;;4987917;28;20038;-85
2021/10/29 06:19:27;;;;;;;6.78;2.60;;;15.40;83.60;;;;;;5005779;28;20040;-86
2021/10/29 06:22:00;;;;;;;8.95;2.97;;;15.40;83.60;;;;;;5007823;28;20034;-85
2021/10/29 06:24:28;;;;;;;4.57;2.47;;;15.40;83.60;;;;;;4989615;28;20486;-81
2021/10/29 06:27:05;;;;;;;6.88;2.72;;;15.40;83.50;;;;;;4988720;28;20061;-87
2021/10/29 06:29:32;;;;;;;5.75;2.22;;;15.40;83.50;;;;;;4988814;28;20041;-83
2021/10/29 06:31:58;;;;;;;6.55;2.78;;;15.40;83.50;;;;;;4988237;28;20038;-82
2021/10/29 06:34:24;;;;;;;5.78;2.10;;;15.30;83.20;;;;;;4988631;28;20033;-84
2021/10/29 06:36:50;;;;;;;7.53;2.97;;;15.30;83.20;;;;;;4987540;28;20053;-82
2021/10/29 06:39:18;;;;;;;6.93;2.30;;;15.30;83.20;;;;;;4985240;28;20386;-83
2021/10/29 06:41:44;;;;;;;6.97;2.65;;;15.30;83.20;;;;;;5004454;28;20033;-83
2021/10/29 06:46:51;;;;;;;7.50;2.58;;;15.20;83.00;;;;;;4999815;28;20054;-82
2021/10/29 06:59:12;;;;;;;7.53;2.45;;;15.20;83.00;;;;;;5005426;28;20126;-84
2021/10/29 07:00:32;;;;;;;5.40;2.17;;;15.10;82.80;;;;;;5004605;28;20088;-78
2021/10/29 07:41:10;;;;;;;8.13;2.50;;;15.10;82.80;;;;;;4987027;28;20951;-83
2021/10/29 07:43:51;;;;;;;8.82;2.70;;;15.10;82.70;;;;;;4985542;28;20042;-84
2021/10/29 07:46:17;;;;;;;6.63;1.80;;;15.10;82.70;;;;;;4987433;28;20591;-81
2021/10/29 07:48:44;;;;;;;5.20;1.83;;;15.10;82.60;;;;;;4996421;28;20038;-80
2021/10/29 07:51:10;;;;;;;10.43;2.95;;;15.10;82.60;;;;;;5006927;28;20329;-78
2021/10/29 07:53:36;;;;;;;9.23;2.15;;;15.10;82.50;;;;;;4991837;28;20030;-81
2021/10/29 07:56:10;;;;;;;5.47;1.65;;;15.20;82.70;;;;;;4986409;28;20026;-82
2021/10/29 07:59:03;;;;;;;5.43;1.98;;;15.20;82.60;;;;;;4980197;28;20030;-77
2021/10/29 08:01:40;;;;;;;5.70;1.38;;;15.20;82.60;;;;;;4989639;28;20113;-78
2021/10/29 08:04:06;;;;;;;9.63;2.63;;;15.20;82.60;;;;;;4971840;28;20081;-77
2021/10/29 08:06:40;;;;;;;7.78;2.97;;;15.20;82.60;;;;;;4986347;28;20030;-76
2021/10/29 08:12:01;;;;;;;9.37;2.77;;;15.30;83.60;;;;;;5005439;28;20030;-77
2021/10/29 08:14:27;;;;;;;8.07;1.60;;;15.40;84.00;;;;;;4986658;28;20026;-79
2021/10/29 08:16:53;;;;;;;9.95;2.42;;;15.50;84.50;;;;;;4987506;28;20109;-79
2021/10/29 08:19:41;;;;;;;5.05;1.88;;;15.50;84.60;;;;;;4989951;28;20385;-79
2021/10/29 08:22:14;;;;;;;7.22;2.13;;;15.60;84.90;;;;;;4987753;28;20112;-80
2021/10/29 08:24:41;;;;;;;4.80;1.50;;;15.60;85.00;;;;;;5004628;28;20406;-81
2021/10/29 08:27:08;;;;;;;6.70;1.85;;;15.70;85.10;;;;;;5021640;28;20405;-80
2021/10/29 08:29:42;;;;;;;5.50;1.65;;;15.70;85.10;;;;;;4989906;28;20033;-79
2021/10/29 08:32:11;;;;;;;3.38;1.77;;;15.70;85.10;;;;;;4992178;28;20038;-79
2021/10/29 08:34:37;;;;;;;5.35;1.48;;;15.70;85.00;;;;;;5010727;28;20087;-79
2021/10/29 08:37:06;;;;;;;5.00;1.60;;;15.70;85.00;;;;;;5009800;28;20378;-79
2021/10/29 08:39:38;;;;;;;5.03;1.40;;;15.70;85.00;;;;;;5024800;28;20026;-79
2021/10/29 08:42:06;;;;;;;7.13;1.35;;;15.70;85.00;;;;;;5009820;28;20401;-79
2021/10/29 08:44:33;;;;;;;7.03;1.58;;;15.70;84.90;;;;;;5009831;28;20037;-80
2021/10/29 08:47:01;;;;;;;5.45;1.00;;;15.70;85.00;;;;;;4992553;28;20490;-80
2021/10/29 08:49:31;;;;;;;5.43;1.48;;;15.80;85.00;;;;;;4997430;28;20474;-79
2021/10/29 08:51:58;;;;;;;8.52;1.52;;;15.80;84.80;;;;;;4970934;28;20035;-79
2021/10/29 08:54:25;;;;;;;3.97;1.35;;;15.80;84.80;;;;;;4990174;28;20423;-79
2021/10/29 08:56:52;;;;;;;3.25;1.20;;;15.70;84.50;;;;;;4990407;28;20030;-79
2021/10/29 08:59:25;;;;;;;8.00;2.40;;;15.70;84.40;;;;;;5020062;28;20034;-80
2021/10/29 09:04:43;;;;;;;9.60;1.90;;;15.70;84.30;;;;;;4969618;28;20457;-79
2021/10/29 09:10:06;;;;;;;4.80;0.93;;;15.70;84.20;;;;;;5004374;28;20026;-79
2021/10/29 09:32:35;;;;;;;3.70;1.25;;;16.20;83.30;;;;;;4974468;28;20038;-77
2021/10/29 09:35:06;;;;;;;3.70;1.10;;;16.30;83.30;;;;;;4988952;28;20494;-78
2021/10/29 09:37:37;;;;;;;5.57;1.35;;;16.40;83.10;;;;;;4987711;28;20032;-77
2021/10/29 09:40:23;;;;;;;4.57;1.05;;;16.40;82.90;;;;;;4989104;28;20093;-77
2021/10/29 09:42:52;;;;;;;5.90;1.45;;;16.40;82.80;;;;;;4988960;28;20030;-78
2021/10/29 09:45:25;;;;;;;3.95;1.30;;;16.50;82.80;;;;;;4989776;28;20034;-77
2021/10/29 09:48:13;;;;;;;4.75;1.50;;;16.50;82.60;;;;;;4989206;28;20046;-77
2021/10/29 09:50:50;;;;;;;1.88;0.82;;;16.60;82.50;;;;;;4989388;28;20093;-78
2021/10/29 09:54:02;;;;;;;3.75;1.23;;;16.60;82.40;;;;;;4989803;28;20066;-78
2021/10/29 09:57:00;;;;;;;4.18;1.05;;;16.70;82.40;;;;;;4989894;28;20133;-78
2021/10/29 09:59:02;;;;;;;2.60;0.90;;;16.70;82.20;;;;;;4988370;28;20118;-78
2021/10/29 10:01:28;;;;;;;3.97;0.85;;;16.70;82.00;;;;;;5003684;28;20035;-79
2021/10/29 10:03:55;;;;;;;5.43;1.70;;;16.80;82.00;;;;;;4988397;28;20038;-80
2021/10/29 10:06:22;;;;;;;5.10;0.85;;;16.80;81.90;;;;;;4988670;28;20293;-79
2021/10/29 10:08:53;;;;;;;2.88;0.80;;;16.80;81.70;;;;;;4998409;28;20040;-79
2021/10/29 10:11:21;;;;;;;2.53;0.93;;;16.90;81.60;;;;;;5006858;28;20385;-78
2021/10/29 10:13:51;;;;;;;3.88;0.95;;;17.00;81.50;;;;;;4992399;28;20406;-78
2021/10/29 10:16:18;;;;;;;3.78;1.63;;;17.00;81.20;;;;;;4985935;28;20122;-79
2021/10/29 10:18:44;;;;;;;3.97;1.20;;;17.00;81.00;;;;;;4987296;28;20120;-79
2021/10/29 10:21:16;;;;;;;2.45;0.80;;;17.00;80.80;;;;;;4987688;28;20529;-79
2021/10/29 10:23:46;;;;;;;5.43;1.50;;;17.00;80.60;;;;;;4986475;28;20880;-78
2021/10/29 10:46:10;;;;;;;2.65;0.80;;;17.20;79.50;;;;;;4988156;28;20042;-78
2021/10/29 11:00:01;;;;;;;7.72;1.65;;;17.30;79.20;;;;;;4998422;28;19931;-77
2021/10/29 11:10:15;;;;;;;3.85;0.90;;;17.30;78.50;;;;;;4987792;28;20105;-78
2021/10/29 11:12:42;;;;;;;5.10;1.13;;;17.30;78.40;;;;;;4987792;28;20445;-79
2021/10/29 11:15:10;;;;;;;4.82;1.20;;;17.20;78.30;;;;;;4986729;28;20609;-77
2021/10/29 11:17:53;;;;;;;7.28;2.22;;;17.20;78.40;;;;;;4987014;28;20057;-78
2021/10/29 11:23:09;;;;;;;2.10;1.10;;;17.30;79.10;;;;;;4978222;28;20023;-79
2021/10/29 11:26:02;;;;;;;4.10;1.83;;;17.30;78.50;;;;;;4987411;28;20084;-79
2021/10/29 11:28:47;;;;;;;2.73;0.73;;;17.30;78.50;;;;;;4986834;28;20058;-78
2021/10/29 11:31:16;;;;;;;3.80;0.70;;;17.20;78.30;;;;;;5001077;28;20504;-78
2021/10/29 11:33:45;;;;;;;2.88;0.90;;;17.20;78.30;;;;;;5000069;28;20121;-78
2021/10/29 11:36:13;;;;;;;3.20;1.13;;;17.20;78.30;;;;;;5000469;28;20579;-76
2021/10/29 11:38:41;;;;;;;5.75;1.70;;;17.20;78.50;;;;;;4988461;28;20033;-77
2021/10/29 11:41:11;;;;;;;2.85;1.02;;;17.30;78.60;;;;;;5002207;28;20134;-76
2021/10/29 11:43:41;;;;;;;3.78;1.67;;;17.40;78.70;;;;;;4986771;28;20038;-79
2021/10/29 11:46:11;;;;;;;4.35;1.25;;;17.40;78.50;;;;;;4987226;28;20042;-76
2021/10/29 11:48:56;;;;;;;4.03;0.88;;;17.50;78.50;;;;;;4986680;28;20065;-78
2021/10/29 11:51:23;;;;;;;5.47;1.10;;;17.60;78.50;;;;;;4987286;28;20122;-78
2021/10/29 11:56:52;;;;;;;3.88;1.38;;;17.60;78.20;;;;;;4987033;28;20038;-78
2021/10/29 12:07:35;;;;;;;6.07;1.35;;;17.50;77.60;;;;;;4967326;28;20065;-78
2021/10/29 12:10:06;;;;;;;4.93;1.38;;;17.50;77.60;;;;;;4986824;28;20422;-79
2021/10/29 12:12:35;;;;;;;7.00;2.03;;;17.50;77.50;;;;;;4990552;28;20550;-78
2021/10/29 12:15:09;;;;;;;2.15;1.05;;;17.40;77.20;;;;;;5007085;28;20132;-78
2021/10/29 12:20:24;;;;;;;4.88;1.38;;;17.50;76.70;;;;;;4967090;28;20038;-78
2021/10/29 12:22:56;;;;;;;5.70;2.50;;;17.50;76.60;;;;;;4972785;28;20065;-78
2021/10/29 13:01:38;;;;;;;5.07;1.75;;;17.70;75.00;;;;;;4986280;28;20030;-78
2021/10/29 13:04:19;;;;;;;7.30;2.92;;;17.70;74.70;;;;;;4985075;28;20057;-78
2021/10/29 13:06:46;;;;;;;5.25;1.58;;;17.70;74.50;;;;;;4984774;28;20041;-78
2021/10/29 13:09:15;;;;;;;6.78;2.40;;;17.70;74.50;;;;;;4998960;28;20157;-78
2021/10/29 13:11:56;;;;;;;5.28;1.58;;;17.70;74.40;;;;;;5004794;28;20053;-78
2021/10/29 13:14:39;;;;;;;5.78;2.03;;;17.60;74.10;;;;;;5002151;28;20066;-79
2021/10/29 13:17:09;;;;;;;6.57;2.05;;;17.60;74.20;;;;;;4989585;28;20065;-78
2021/10/29 13:36:07;;;;;;;5.97;1.88;;;17.30;73.40;;;;;;4981747;28;20043;-78
2021/10/29 14:32:15;;;;;;;16.48;2.63;;;16.90;70.60;;;;;;4989488;28;20065;-87
2021/10/29 14:34:45;;;;;;;7.80;2.00;;;16.90;70.50;;;;;;5003735;28;20031;-87
2021/10/29 14:44:54;;;;;;;8.40;2.03;;;16.70;70.60;;;;;;4988915;28;20049;-87
2021/10/29 15:27:58;;;;;;;7.50;3.05;;;17.10;74.00;;;;;;4989405;28;20043;-84
2021/10/29 15:30:40;;;;;;;4.15;1.90;;;17.10;74.10;;;;;;4985799;28;20035;-88
2021/10/29 15:44:12;;;;;;;5.68;1.90;;;17.10;74.00;;;;;;4995245;28;20114;-83
2021/10/29 15:51:45;;;;;;;7.72;2.45;;;17.00;73.90;;;;;;5000138;28;20026;-87
2021/10/29 15:54:12;;;;;;;5.50;2.30;;;17.00;73.90;;;;;;5006868;28;20025;-85
2021/10/29 15:56:42;;;;;;;5.57;1.73;;;17.00;74.00;;;;;;5007401;28;20037;-85
2021/10/29 16:18:06;;;;;;;3.80;1.83;;;16.90;73.70;;;;;;4989389;28;20033;-82
2021/10/29 16:20:32;;;;;;;5.00;2.10;;;16.80;73.40;;;;;;5021233;28;20038;-83
2021/10/29 16:23:01;;;;;;;9.77;3.22;;;16.70;73.20;;;;;;5001444;28;20149;-82
2021/10/29 16:25:36;;;;;;;7.03;2.42;;;16.70;73.10;;;;;;4986862;28;20501;-81
2021/10/29 16:28:13;;;;;;;6.57;2.95;;;16.60;73.10;;;;;;4985405;28;20039;-86
2021/10/29 16:30:39;;;;;;;5.78;1.70;;;16.60;73.40;;;;;;4983088;28;20049;-85
2021/10/29 16:33:08;;;;;;;6.80;2.70;;;16.50;73.50;;;;;;4978649;28;20061;-82
2021/10/29 16:35:38;;;;;;;6.68;2.15;;;16.40;73.50;;;;;;4986096;28;20034;-82
2021/10/29 16:38:07;;;;;;;7.53;1.83;;;16.40;73.80;;;;;;5000819;28;20023;-79
2021/10/29 16:40:34;;;;;;;6.25;2.33;;;16.30;73.90;;;;;;5001642;28;20133;-82
2021/10/29 16:43:00;;;;;;;3.78;2.40;;;16.30;74.00;;;;;;4986858;28;20644;-81
2021/10/29 16:45:27;;;;;;;7.63;2.55;;;16.30;74.20;;;;;;4984215;28;20038;-82
2021/10/29 16:47:53;;;;;;;5.40;2.40;;;16.20;74.20;;;;;;4985493;28;20050;-86
2021/10/29 16:50:20;;;;;;;6.25;2.67;;;16.20;74.30;;;;;;4986852;28;20506;-84
2021/10/29 16:52:47;;;;;;;7.82;3.25;;;16.10;74.30;;;;;;4990470;28;20494;-83
2021/10/29 16:55:14;;;;;;;5.30;2.35;;;16.10;74.40;;;;;;4990561;28;20065;-82
2021/10/29 16:57:40;;;;;;;11.00;3.25;;;16.00;74.40;;;;;;4990548;28;20053;-84
2021/10/29 17:00:11;;;;;;;8.50;3.58;;;16.00;74.40;;;;;;4989703;28;20478;-84
2021/10/29 17:02:38;;;;;;;8.35;3.67;;;15.90;74.40;;;;;;4989186;28;20043;-85
2021/10/29 17:05:05;;;;;;;8.15;2.80;;;15.90;74.40;;;;;;4989360;28;20026;-80
2021/10/29 17:07:33;;;;;;;5.50;2.92;;;15.80;74.30;;;;;;4990847;28;20121;-82
2021/10/29 17:10:06;;;;;;;6.20;2.63;;;15.80;74.40;;;;;;4990467;28;20060;-82
2021/10/29 17:12:34;;;;;;;7.15;2.80;;;15.80;74.60;;;;;;4990350;28;20030;-83
2021/10/29 17:15:00;;;;;;;7.32;3.38;;;15.70;74.50;;;;;;4995969;28;20026;-86
2021/10/29 17:17:26;;;;;;;3.67;2.53;;;15.70;74.60;;;;;;4988748;28;20026;-81
2021/10/29 17:19:52;;;;;;;8.98;3.25;;;15.60;74.40;;;;;;4988820;28;20046;-84
2021/10/29 17:22:18;;;;;;;6.18;2.83;;;15.60;74.40;;;;;;4985436;28;20142;-83
2021/10/29 17:24:45;;;;;;;6.35;2.25;;;15.60;74.30;;;;;;4969762;28;20618;-85
2021/10/29 17:27:13;;;;;;;6.45;2.78;;;15.50;74.10;;;;;;4969120;28;20414;-83
2021/10/29 17:29:39;;;;;;;8.05;2.85;;;15.40;74.50;;;;;;4985096;28;20026;-85
2021/10/29 17:32:10;;;;;;;7.20;2.63;;;15.30;73.80;;;;;;4989552;28;20026;-83
2021/10/29 17:34:36;;;;;;;6.10;2.13;;;15.30;73.90;;;;;;4988138;28;20434;-83
2021/10/29 17:37:02;;;;;;;4.70;2.17;;;15.20;73.80;;;;;;4989987;28;20038;-81
2021/10/29 17:39:28;;;;;;;4.50;2.05;;;15.20;73.80;;;;;;5017675;28;20124;-83
2021/10/29 17:41:54;;;;;;;5.88;2.72;;;15.10;73.70;;;;;;5007473;28;20511;-81
2021/10/29 17:44:20;;;;;;;7.00;1.60;;;15.00;73.60;;;;;;4992013;28;20035;-81
2021/10/29 17:46:46;;;;;;;4.28;1.85;;;14.90;73.50;;;;;;4988739;28;20034;-82
2021/10/29 17:49:12;;;;;;;4.75;2.30;;;14.90;73.60;;;;;;4998472;28;20505;-81
2021/10/29 17:51:38;;;;;;;4.88;1.98;;;14.80;73.50;;;;;;5001782;28;20034;-80
2021/10/29 17:54:05;;;;;;;4.40;2.35;;;14.80;73.50;;;;;;4993789;28;20026;-81
2021/10/29 17:56:31;;;;;;;4.95;2.17;;;14.70;73.40;;;;;;4995467;28;20022;-79
2021/10/29 17:58:57;;;;;;;5.97;2.10;;;14.60;73.30;;;;;;4994212;28;20080;-83
2021/10/29 18:01:23;;;;;;;5.95;2.78;;;14.60;73.40;;;;;;5004015;28;20026;-82
2021/10/29 18:03:49;;;;;;;6.35;2.95;;;14.50;73.30;;;;;;5003609;28;20026;-80
2021/10/29 18:06:15;;;;;;;5.35;1.83;;;14.40;73.20;;;;;;4983542;28;20037;-80
2021/10/29 18:08:44;;;;;;;3.50;1.85;;;14.40;73.30;;;;;;5001646;28;20390;-81
2021/10/29 18:11:10;;;;;;;8.27;3.35;;;14.30;73.20;;;;;;4988451;28;20364;-80
2021/10/29 18:13:37;;;;;;;11.65;3.85;;;14.30;73.60;;;;;;4997513;28;20037;-81
2021/10/29 18:16:03;;;;;;;13.77;3.15;;;14.30;74.40;;;;;;5006836;28;20172;-81
2021/10/29 18:18:30;;;;;;;8.77;2.97;;;14.30;75.00;;;;;;4988881;28;20450;-81